createdAt,value
2019-01-27T00:00:39.538Z,231.13
2019-01-27T00:03:08.874Z,195.33
2019-01-27T00:05:38.246Z,188.83
2019-01-27T00:08:13.404Z,156.27
2019-01-27T00:10:38.508Z,195.27
2019-01-27T00:13:07.869Z,216.77
2019-01-27T00:15:37.436Z,179.37
2019-01-27T00:18:06.764Z,149.30
2019-01-27T00:20:36.091Z,139.20
2019-01-27T00:23:05.570Z,132.93
2019-01-27T00:25:34.916Z,136.97
2019-01-27T00:28:04.307Z,158.23
2019-01-27T00:30:33.753Z,134.33
2019-01-27T00:33:03.090Z,154.83
2019-01-27T00:35:32.468Z,129.10
2019-01-27T00:38:01.940Z,137.93
2019-01-27T00:40:31.323Z,144.43
2019-01-27T00:43:00.693Z,121.03
2019-01-27T00:45:30.069Z,125.13
2019-01-27T00:47:59.292Z,121.87
2019-01-27T00:50:28.652Z,124.93
2019-01-27T00:52:58.114Z,112.27
2019-01-27T00:55:27.483Z,107.20
2019-01-27T00:57:56.851Z,114.57
2019-01-27T01:00:29.940Z,115.63
2019-01-27T01:02:59.323Z,105.33
2019-01-27T01:05:28.710Z,101.37
2019-01-27T01:07:58.116Z,97.33
2019-01-27T01:10:27.516Z,91.83
2019-01-27T01:12:56.842Z,92.43
2019-01-27T01:15:26.307Z,74.57
2019-01-27T01:17:55.676Z,84.70
2019-01-27T01:20:24.994Z,89.47
2019-01-27T01:22:54.444Z,109.53
2019-01-27T01:25:24.963Z,80.27
2019-01-27T01:27:54.195Z,79.00
2019-01-27T01:30:26.430Z,76.73
2019-01-27T01:32:55.731Z,71.37
2019-01-27T01:35:25.092Z,68.97
2019-01-27T01:37:54.533Z,65.70
2019-01-27T01:40:23.867Z,65.27
2019-01-27T01:42:53.205Z,68.87
2019-01-27T01:45:25.155Z,61.57
2019-01-27T01:47:54.539Z,53.83
2019-01-27T01:50:23.882Z,54.77
2019-01-27T01:52:53.203Z,53.67
2019-01-27T01:55:22.532Z,52.83
2019-01-27T01:57:51.859Z,43.93
2019-01-27T02:00:22.682Z,58.53
2019-01-27T02:02:52.043Z,51.40
2019-01-27T02:05:21.475Z,52.77
2019-01-27T02:07:50.955Z,39.00
2019-01-27T02:10:23.531Z,39.53
2019-01-27T02:12:53.285Z,42.40
2019-01-27T02:15:31.494Z,42.03
2019-01-27T02:18:00.716Z,37.63
2019-01-27T02:20:30.610Z,38.50
2019-01-27T02:22:59.940Z,38.97
2019-01-27T02:25:29.222Z,37.93
2019-01-27T02:27:58.572Z,38.40
2019-01-27T02:30:28.684Z,33.80
2019-01-27T02:32:58.140Z,35.67
2019-01-27T02:35:27.475Z,35.83
2019-01-27T02:37:56.947Z,41.43
2019-01-27T02:40:26.317Z,43.63
2019-01-27T02:42:55.490Z,45.63
2019-01-27T02:45:25.123Z,34.33
2019-01-27T02:47:54.450Z,32.50
2019-01-27T02:50:23.784Z,28.57
2019-01-27T02:52:53.251Z,30.77
2019-01-27T02:55:22.491Z,31.03
2019-01-27T02:57:51.804Z,31.90
2019-01-27T03:00:24.324Z,34.50
2019-01-27T03:02:53.610Z,30.10
2019-01-27T03:05:24.452Z,32.63
2019-01-27T03:07:53.835Z,35.33
2019-01-27T03:10:23.182Z,28.70
2019-01-27T03:12:52.570Z,39.53
2019-01-27T03:15:22.067Z,36.00
2019-01-27T03:17:51.428Z,34.83
2019-01-27T03:20:20.813Z,36.47
2019-01-27T03:22:50.258Z,28.77
2019-01-27T03:25:19.723Z,33.63
2019-01-27T03:27:49.116Z,29.57
2019-01-27T03:30:20.349Z,24.67
2019-01-27T03:32:49.685Z,22.50
2019-01-27T03:35:19.061Z,26.63
2019-01-27T03:37:48.483Z,23.23
2019-01-27T03:40:19.044Z,26.00
2019-01-27T03:42:48.385Z,27.23
2019-01-27T03:45:22.083Z,27.03
2019-01-27T03:47:51.316Z,26.93
2019-01-27T03:50:21.364Z,33.40
2019-01-27T03:52:50.874Z,32.77
2019-01-27T03:55:28.447Z,37.40
2019-01-27T03:57:57.889Z,35.50
2019-01-27T04:00:27.264Z,28.37
2019-01-27T04:02:56.597Z,30.67
2019-01-27T04:05:26.002Z,33.80
2019-01-27T04:07:55.259Z,30.57
2019-01-27T04:10:26.780Z,33.00
2019-01-27T04:12:56.252Z,34.07
2019-01-27T04:15:25.565Z,35.90
2019-01-27T04:17:54.851Z,26.87
2019-01-27T04:20:24.323Z,24.17
2019-01-27T04:22:53.691Z,25.70
2019-01-27T04:25:23.054Z,25.40
2019-01-27T04:27:52.467Z,21.30
2019-01-27T04:30:33.057Z,25.70
2019-01-27T04:33:02.547Z,28.00
2019-01-27T04:35:31.780Z,27.30
2019-01-27T04:38:00.995Z,25.07
2019-01-27T04:40:30.426Z,36.10
2019-01-27T04:42:59.812Z,28.40
2019-01-27T04:45:30.429Z,25.53
2019-01-27T04:47:59.872Z,28.33
2019-01-27T04:50:29.206Z,27.47
2019-01-27T04:52:58.531Z,25.03
2019-01-27T04:55:27.908Z,24.10
2019-01-27T04:57:57.123Z,26.43
2019-01-27T05:00:27.290Z,29.97
2019-01-27T05:03:01.668Z,23.67
2019-01-27T05:05:31.059Z,25.10
2019-01-27T05:08:00.619Z,24.17
2019-01-27T05:10:30.127Z,26.60
2019-01-27T05:12:59.452Z,26.40
2019-01-27T05:15:30.283Z,21.97
2019-01-27T05:17:59.765Z,25.63
2019-01-27T05:20:29.116Z,22.00
2019-01-27T05:22:58.259Z,18.80
2019-01-27T05:25:27.645Z,21.30
2019-01-27T05:27:56.939Z,23.00
2019-01-27T05:30:27.130Z,23.20
2019-01-27T05:32:56.538Z,19.30
2019-01-27T05:35:25.900Z,23.03
2019-01-27T05:37:55.195Z,18.63
2019-01-27T05:40:24.779Z,20.80
2019-01-27T05:42:54.106Z,21.33
2019-01-27T05:45:24.268Z,22.90
2019-01-27T05:47:53.725Z,16.70
2019-01-27T05:50:23.059Z,20.63
2019-01-27T05:52:52.410Z,24.80
2019-01-27T05:55:22.100Z,20.67
2019-01-27T05:57:51.332Z,17.57
2019-01-27T06:00:32.468Z,14.90
2019-01-27T06:03:01.682Z,13.93
2019-01-27T06:05:31.044Z,20.63
2019-01-27T06:08:00.501Z,22.43
2019-01-27T06:10:29.877Z,17.37
2019-01-27T06:12:59.138Z,16.67
2019-01-27T06:15:28.572Z,15.10
2019-01-27T06:17:57.936Z,18.03
2019-01-27T06:20:27.344Z,15.63
2019-01-27T06:22:56.731Z,17.97
2019-01-27T06:25:26.473Z,20.67
2019-01-27T06:27:55.932Z,21.30
2019-01-27T06:30:26.692Z,20.67
2019-01-27T06:32:57.532Z,18.30
2019-01-27T06:35:26.780Z,16.33
2019-01-27T06:37:56.207Z,15.20
2019-01-27T06:40:25.492Z,21.87
2019-01-27T06:42:54.949Z,14.30
2019-01-27T06:45:24.420Z,18.87
2019-01-27T06:47:53.779Z,20.23
2019-01-27T06:50:23.076Z,17.50
2019-01-27T06:52:52.357Z,19.27
2019-01-27T06:55:22.579Z,18.03
2019-01-27T06:57:51.732Z,19.37
2019-01-27T07:00:32.141Z,16.77
2019-01-27T07:03:02.972Z,17.17
2019-01-27T07:05:33.764Z,20.07
2019-01-27T07:08:04.684Z,16.83
2019-01-27T07:10:50.819Z,15.20
2019-01-27T07:13:21.748Z,17.20
2019-01-27T07:16:08.765Z,16.00
2019-01-27T07:18:48.500Z,14.90
2019-01-27T07:21:28.258Z,16.37
2019-01-27T07:24:11.308Z,12.97
2019-01-27T07:26:48.268Z,15.27
2019-01-27T07:29:22.059Z,16.40
2019-01-27T07:32:08.314Z,12.40
2019-01-27T07:34:42.020Z,16.17
2019-01-27T07:37:22.204Z,16.63
2019-01-27T07:39:53.867Z,16.67
2019-01-27T07:42:36.780Z,13.53
2019-01-27T07:45:15.580Z,17.07
2019-01-27T07:47:52.276Z,14.07
2019-01-27T07:50:32.133Z,14.13
2019-01-27T07:53:05.773Z,16.07
2019-01-27T07:55:51.604Z,12.27
2019-01-27T07:58:25.437Z,14.63
2019-01-27T08:00:59.324Z,12.57
2019-01-27T08:03:33.190Z,12.93
2019-01-27T08:06:10.085Z,14.87
2019-01-27T08:08:43.591Z,11.97
2019-01-27T08:11:20.270Z,10.03
2019-01-27T08:13:53.908Z,9.40
2019-01-27T08:16:40.273Z,8.70
2019-01-27T08:19:11.077Z,10.10
2019-01-27T08:21:47.741Z,11.93
2019-01-27T08:24:27.724Z,12.50
2019-01-27T08:26:58.699Z,13.53
2019-01-27T08:29:32.348Z,13.13
2019-01-27T08:32:09.068Z,12.70
2019-01-27T08:34:39.781Z,14.93
2019-01-27T08:37:19.866Z,11.57
2019-01-27T08:40:02.869Z,12.73
2019-01-27T08:42:50.244Z,10.77
2019-01-27T08:45:20.924Z,15.63
2019-01-27T08:47:50.322Z,14.53
2019-01-27T08:50:19.758Z,13.67
2019-01-27T08:52:49.036Z,16.10
2019-01-27T08:55:18.428Z,14.10
2019-01-27T08:57:47.773Z,16.67
2019-01-27T09:00:19.572Z,19.47
2019-01-27T09:02:50.263Z,16.07
2019-01-27T09:05:21.252Z,13.80
2019-01-27T09:08:01.042Z,19.70
2019-01-27T09:10:35.150Z,17.50
2019-01-27T09:13:12.684Z,14.43
2019-01-27T09:15:46.564Z,15.60
2019-01-27T09:18:29.189Z,17.43
2019-01-27T09:21:16.333Z,18.03
2019-01-27T09:23:56.036Z,15.63
2019-01-27T09:26:26.972Z,16.10
2019-01-27T09:28:57.748Z,13.83
2019-01-27T09:31:43.708Z,18.00
2019-01-27T09:34:14.508Z,14.23
2019-01-27T09:36:45.756Z,13.00
2019-01-27T09:39:16.684Z,15.07
2019-01-27T09:41:48.829Z,17.13
2019-01-27T09:44:35.060Z,14.63
2019-01-27T09:47:14.899Z,15.73
2019-01-27T09:49:45.916Z,13.13
2019-01-27T09:52:35.629Z,14.23
2019-01-27T09:55:19.572Z,14.10
2019-01-27T09:57:50.283Z,14.10
2019-01-27T10:00:24.452Z,16.20
2019-01-27T10:02:55.134Z,19.27
2019-01-27T10:05:25.845Z,14.07
2019-01-27T10:08:06.130Z,18.30
2019-01-27T10:10:36.852Z,14.73
2019-01-27T10:13:13.630Z,18.47
2019-01-27T10:15:44.445Z,14.80
2019-01-27T10:18:21.211Z,16.70
2019-01-27T10:20:54.748Z,15.97
2019-01-27T10:23:25.684Z,13.97
2019-01-27T10:26:05.484Z,13.70
2019-01-27T10:28:39.322Z,14.97
2019-01-27T10:31:26.640Z,10.97
2019-01-27T10:33:57.596Z,13.30
2019-01-27T10:36:40.342Z,11.97
2019-01-27T10:39:11.332Z,10.20
2019-01-27T10:41:47.772Z,13.83
2019-01-27T10:44:18.783Z,12.37
2019-01-27T10:46:49.804Z,9.63
2019-01-27T10:49:21.228Z,10.03
2019-01-27T10:51:52.236Z,7.87
2019-01-27T10:54:30.115Z,8.33
2019-01-27T10:57:03.860Z,10.03
2019-01-27T10:59:40.580Z,10.17
2019-01-27T11:02:27.956Z,13.13
2019-01-27T11:04:58.739Z,8.33
2019-01-27T11:07:35.924Z,7.00
2019-01-27T11:10:11.708Z,10.57
2019-01-27T11:12:42.916Z,7.93
2019-01-27T11:15:26.319Z,8.90
2019-01-27T11:18:09.499Z,10.33
2019-01-27T11:20:49.060Z,7.57
2019-01-27T11:23:19.948Z,8.07
2019-01-27T11:26:00.761Z,9.07
2019-01-27T11:28:29.309Z,7.07
2019-01-27T11:30:59.980Z,7.90
2019-01-27T11:33:45.854Z,6.53
2019-01-27T11:36:28.611Z,7.20
2019-01-27T11:39:02.765Z,7.83
2019-01-27T11:41:42.542Z,8.00
2019-01-27T11:44:13.549Z,6.40
2019-01-27T11:47:00.707Z,8.73
2019-01-27T11:49:34.260Z,6.97
2019-01-27T11:52:03.685Z,7.40
2019-01-27T11:54:33.131Z,6.87
2019-01-27T11:57:02.508Z,9.40
2019-01-27T11:59:31.725Z,7.33
2019-01-27T12:02:01.028Z,8.80
2019-01-27T12:04:30.332Z,8.17
2019-01-27T12:06:59.669Z,9.30
2019-01-27T12:09:28.955Z,7.93
2019-01-27T12:11:57.981Z,8.77
2019-01-27T12:14:27.148Z,9.33
2019-01-27T12:16:56.318Z,8.93
2019-01-27T12:19:25.346Z,10.10
2019-01-27T12:21:54.532Z,10.33
2019-01-27T12:24:23.812Z,10.83
2019-01-27T12:26:53.021Z,8.30
2019-01-27T12:29:22.411Z,7.73
2019-01-27T12:31:51.732Z,6.60
2019-01-27T12:34:20.860Z,6.30
2019-01-27T12:36:49.926Z,8.00
2019-01-27T12:39:18.979Z,7.93
2019-01-27T12:41:48.140Z,6.83
2019-01-27T12:44:17.316Z,6.43
2019-01-27T12:46:46.388Z,7.60
2019-01-27T12:49:15.682Z,4.70
2019-01-27T12:51:44.950Z,6.30
2019-01-27T12:54:14.277Z,6.30
2019-01-27T12:56:43.685Z,6.17
2019-01-27T12:59:12.691Z,6.07
2019-01-27T13:01:41.957Z,7.07
2019-01-27T13:04:11.108Z,6.50
2019-01-27T13:06:41.092Z,5.40
2019-01-27T13:09:10.411Z,6.67
2019-01-27T13:11:39.492Z,5.20
2019-01-27T13:14:08.844Z,6.50
2019-01-27T13:16:37.908Z,7.37
2019-01-27T13:19:07.027Z,7.50
2019-01-27T13:21:36.180Z,5.60
2019-01-27T13:24:05.220Z,5.67
2019-01-27T13:26:34.356Z,4.93
2019-01-27T13:29:03.292Z,5.40
2019-01-27T13:31:32.244Z,5.77
2019-01-27T13:34:01.548Z,4.80
2019-01-27T13:36:30.667Z,5.40
2019-01-27T13:38:59.572Z,7.23
2019-01-27T13:41:28.814Z,5.73
2019-01-27T13:43:57.700Z,4.23
2019-01-27T13:46:26.757Z,4.70
2019-01-27T13:48:55.781Z,3.53
2019-01-27T13:51:24.992Z,4.30
2019-01-27T13:53:54.109Z,3.77
2019-01-27T13:56:23.499Z,3.57
2019-01-27T13:58:52.790Z,3.33
2019-01-27T14:01:22.100Z,3.87
2019-01-27T14:03:54.246Z,3.50
2019-01-27T14:06:23.387Z,4.40
2019-01-27T14:08:52.709Z,3.80
2019-01-27T14:11:22.369Z,3.77
2019-01-27T14:13:51.687Z,3.43
2019-01-27T14:16:20.690Z,4.17
2019-01-27T14:18:49.912Z,4.87
2019-01-27T14:21:19.172Z,3.77
2019-01-27T14:23:48.308Z,4.23
2019-01-27T14:26:17.699Z,4.03
2019-01-27T14:28:46.876Z,5.97
2019-01-27T14:31:16.076Z,3.10
2019-01-27T14:33:45.244Z,4.20
2019-01-27T14:36:14.411Z,3.97
2019-01-27T14:38:43.420Z,3.20
2019-01-27T14:41:12.461Z,4.10
2019-01-27T14:43:41.546Z,3.27
2019-01-27T14:46:10.714Z,3.63
2019-01-27T14:48:39.941Z,4.03
2019-01-27T14:51:09.037Z,3.67
2019-01-27T14:53:38.467Z,3.53
2019-01-27T14:56:07.717Z,6.20
2019-01-27T14:58:37.430Z,5.77
2019-01-27T15:01:06.780Z,4.93
2019-01-27T15:03:36.980Z,3.93
2019-01-27T15:06:06.197Z,5.70
2019-01-27T15:08:35.844Z,3.80
2019-01-27T15:11:08.093Z,4.07
2019-01-27T15:13:37.405Z,5.30
2019-01-27T15:16:06.750Z,5.50
2019-01-27T15:18:36.203Z,5.30
2019-01-27T15:21:05.548Z,4.13
2019-01-27T15:23:34.947Z,4.93
2019-01-27T15:26:04.428Z,3.27
2019-01-27T15:28:33.779Z,3.97
2019-01-27T15:31:02.973Z,4.17
2019-01-27T15:33:32.516Z,3.13
2019-01-27T15:36:01.877Z,3.30
2019-01-27T15:38:31.179Z,3.57
2019-01-27T15:41:00.660Z,3.07
2019-01-27T15:43:30.013Z,3.73
2019-01-27T15:45:59.366Z,3.63
2019-01-27T15:48:28.850Z,4.43
2019-01-27T15:50:59.657Z,3.13
2019-01-27T15:53:29.745Z,3.00
2019-01-27T15:55:59.164Z,2.70
2019-01-27T15:58:29.411Z,3.07
2019-01-27T16:00:58.460Z,3.47
2019-01-27T16:03:27.623Z,5.27
2019-01-27T16:06:00.917Z,3.00
2019-01-27T16:08:30.636Z,3.10
2019-01-27T16:10:59.708Z,4.10
2019-01-27T16:13:28.971Z,3.60
2019-01-27T16:15:58.351Z,3.00
2019-01-27T16:18:27.570Z,4.03
2019-01-27T16:20:56.693Z,6.37
2019-01-27T16:23:33.326Z,3.90
2019-01-27T16:26:03.117Z,5.53
2019-01-27T16:28:32.338Z,4.33
2019-01-27T16:31:09.796Z,3.40
2019-01-27T16:33:52.860Z,3.27
2019-01-27T16:36:22.084Z,3.93
2019-01-27T16:38:51.442Z,4.53
2019-01-27T16:41:20.540Z,3.23
2019-01-27T16:43:50.006Z,3.70
2019-01-27T16:46:19.308Z,3.27
2019-01-27T16:48:49.950Z,3.93
2019-01-27T16:51:19.508Z,4.50
2019-01-27T16:53:48.780Z,3.43
2019-01-27T16:56:17.918Z,4.23
2019-01-27T16:58:47.322Z,6.87
2019-01-27T17:01:16.676Z,4.53
2019-01-27T17:03:45.900Z,3.77
2019-01-27T17:06:15.408Z,4.20
2019-01-27T17:08:44.731Z,5.20
2019-01-27T17:11:14.612Z,6.33
2019-01-27T17:13:44.108Z,5.53
2019-01-27T17:16:13.469Z,4.00
2019-01-27T17:18:42.803Z,13.30
2019-01-27T17:21:12.246Z,8.37
2019-01-27T17:23:41.468Z,6.73
2019-01-27T17:26:10.684Z,6.03
2019-01-27T17:28:40.140Z,7.07
2019-01-27T17:31:09.348Z,4.53
2019-01-27T17:33:38.780Z,4.40
2019-01-27T17:36:08.797Z,6.20
2019-01-27T17:38:40.587Z,6.00
2019-01-27T17:41:08.956Z,5.97
2019-01-27T17:43:38.326Z,6.67
2019-01-27T17:46:07.628Z,6.90
2019-01-27T17:48:37.004Z,9.40
2019-01-27T17:51:06.388Z,8.73
2019-01-27T17:53:37.255Z,8.53
2019-01-27T17:56:06.482Z,13.00
2019-01-27T17:58:55.956Z,7.60
2019-01-27T18:01:35.852Z,6.73
2019-01-27T18:04:15.671Z,9.00
2019-01-27T18:06:46.525Z,8.13
2019-01-27T18:09:34.084Z,9.00
2019-01-27T18:12:07.588Z,8.10
2019-01-27T18:14:37.082Z,7.57
2019-01-27T18:17:06.421Z,7.43
2019-01-27T18:19:35.548Z,8.03
2019-01-27T18:22:04.698Z,7.93
2019-01-27T18:24:35.988Z,8.27
2019-01-27T18:27:04.883Z,10.63
2019-01-27T18:29:34.397Z,9.77
2019-01-27T18:32:03.757Z,9.20
2019-01-27T18:34:33.030Z,10.20
2019-01-27T18:37:02.487Z,9.47
2019-01-27T18:39:31.788Z,9.47
2019-01-27T18:42:01.157Z,8.03
2019-01-27T18:44:30.592Z,8.83
2019-01-27T18:46:59.907Z,9.63
2019-01-27T18:49:29.274Z,10.20
2019-01-27T18:51:58.558Z,8.27
2019-01-27T18:54:38.573Z,8.87
2019-01-27T18:57:18.496Z,9.53
2019-01-27T18:59:49.308Z,10.53
2019-01-27T19:02:23.045Z,9.13
2019-01-27T19:05:10.368Z,9.00
2019-01-27T19:07:43.876Z,8.47
2019-01-27T19:10:23.884Z,9.53
2019-01-27T19:12:54.773Z,7.97
2019-01-27T19:15:44.939Z,8.90
2019-01-27T19:18:18.589Z,8.73
2019-01-27T19:20:49.379Z,8.90
2019-01-27T19:23:22.748Z,7.00
2019-01-27T19:25:56.180Z,8.57
2019-01-27T19:28:27.200Z,8.67
2019-01-27T19:30:57.821Z,11.53
2019-01-27T19:33:47.949Z,7.17
2019-01-27T19:36:18.582Z,7.33
2019-01-27T19:39:04.588Z,6.33
2019-01-27T19:41:37.987Z,8.23
2019-01-27T19:44:20.981Z,8.10
2019-01-27T19:47:04.916Z,10.50
2019-01-27T19:49:53.799Z,6.97
2019-01-27T19:52:30.722Z,6.57
2019-01-27T19:55:17.989Z,6.13
2019-01-27T19:58:04.852Z,6.00
2019-01-27T20:00:35.773Z,5.93
2019-01-27T20:03:06.563Z,6.83
2019-01-27T20:05:54.083Z,5.30
2019-01-27T20:08:24.943Z,6.00
2019-01-27T20:11:04.004Z,7.80
2019-01-27T20:13:43.708Z,6.57
2019-01-27T20:16:14.763Z,6.67
2019-01-27T20:19:02.979Z,7.83
2019-01-27T20:21:53.257Z,7.93
2019-01-27T20:24:21.180Z,6.53
2019-01-27T20:26:54.916Z,9.17
2019-01-27T20:29:25.645Z,10.73
2019-01-27T20:31:56.449Z,6.63
2019-01-27T20:34:30.453Z,8.37
2019-01-27T20:37:13.668Z,7.13
2019-01-27T20:39:44.620Z,6.37
2019-01-27T20:42:24.091Z,6.53
2019-01-27T20:44:57.980Z,7.57
2019-01-27T20:47:40.949Z,7.33
2019-01-27T20:50:30.404Z,7.10
2019-01-27T20:53:01.267Z,7.17
2019-01-27T20:55:44.179Z,7.10
2019-01-27T20:58:20.860Z,8.70
2019-01-27T21:00:53.842Z,8.13
2019-01-27T21:03:39.379Z,7.07
2019-01-27T21:06:13.187Z,7.53
2019-01-27T21:08:59.020Z,6.10
2019-01-27T21:11:29.923Z,6.67
2019-01-27T21:14:03.825Z,7.27
2019-01-27T21:16:34.502Z,7.07
2019-01-27T21:19:08.363Z,8.30
2019-01-27T21:21:37.742Z,6.57
2019-01-27T21:24:06.979Z,6.53
2019-01-27T21:26:36.379Z,8.70
2019-01-27T21:29:05.756Z,7.13
2019-01-27T21:31:35.195Z,8.40
2019-01-27T21:34:04.425Z,6.63
2019-01-27T21:36:33.819Z,5.47
2019-01-27T21:39:03.782Z,7.50
2019-01-27T21:41:32.930Z,6.87
2019-01-27T21:44:02.035Z,8.23
2019-01-27T21:46:31.476Z,6.30
2019-01-27T21:49:00.735Z,6.37
2019-01-27T21:51:30.010Z,7.20
2019-01-27T21:53:59.420Z,6.50
2019-01-27T21:56:28.741Z,8.77
2019-01-27T21:58:58.099Z,6.97
2019-01-27T22:01:27.500Z,6.40
2019-01-27T22:03:56.820Z,6.67
2019-01-27T22:06:26.196Z,6.33
2019-01-27T22:08:55.516Z,7.57
2019-01-27T22:11:24.866Z,6.93
2019-01-27T22:13:54.180Z,7.20
2019-01-27T22:16:23.725Z,7.93
2019-01-27T22:18:53.085Z,7.70
2019-01-27T22:21:22.307Z,8.57
2019-01-27T22:23:51.645Z,6.93
2019-01-27T22:26:20.964Z,7.83
2019-01-27T22:28:50.300Z,10.90
2019-01-27T22:31:19.731Z,9.13
2019-01-27T22:33:49.086Z,8.83
2019-01-27T22:36:18.326Z,7.90
2019-01-27T22:38:47.716Z,10.73
2019-01-27T22:41:17.035Z,8.50
2019-01-27T22:43:46.424Z,7.43
2019-01-27T22:46:15.796Z,7.50
2019-01-27T22:48:45.078Z,10.17
2019-01-27T22:51:14.404Z,9.33
2019-01-27T22:53:43.877Z,9.80
2019-01-27T22:56:13.228Z,9.83
2019-01-27T22:58:42.452Z,10.17
2019-01-27T23:01:12.636Z,9.03
2019-01-27T23:03:41.945Z,8.57
2019-01-27T23:06:11.140Z,8.10
2019-01-27T23:08:40.564Z,10.17
2019-01-27T23:11:09.932Z,10.37
2019-01-27T23:13:39.252Z,7.83
2019-01-27T23:16:08.643Z,10.30
2019-01-27T23:18:38.106Z,11.67
2019-01-27T23:21:07.446Z,9.50
2019-01-27T23:23:36.933Z,10.13
2019-01-27T23:26:06.244Z,10.70
2019-01-27T23:28:35.578Z,9.27
2019-01-27T23:31:05.014Z,9.30
2019-01-27T23:33:34.364Z,8.83
2019-01-27T23:36:03.716Z,10.37
2019-01-27T23:38:33.106Z,8.53
2019-01-27T23:41:02.340Z,9.17
2019-01-27T23:43:31.684Z,7.20
2019-01-27T23:46:01.044Z,9.50
2019-01-27T23:48:30.402Z,8.80
2019-01-27T23:50:59.740Z,8.13
2019-01-27T23:53:30.252Z,7.80
2019-01-27T23:55:59.580Z,9.30
2019-01-27T23:58:28.954Z,6.97
